sensor_id;sensor_type;location;lat;lon;timestamp;pressure;altitude;pressure_sealevel;temperature;humidity
23805;BME280;12083;52.098;7.582;2022-07-29T00:00:37;101376.03;;;21.88;39.93
23805;BME280;12083;52.098;7.582;2022-07-29T00:03:03;101376.91;;;21.89;39.86
23805;BME280;12083;52.098;7.582;2022-07-29T00:05:29;101372.50;;;21.88;40.01
23805;BME280;12083;52.098;7.582;2022-07-29T00:07:54;101360.19;;;21.85;39.84
23805;BME280;12083;52.098;7.582;2022-07-29T00:10:20;101369.16;;;21.84;39.95
23805;BME280;12083;52.098;7.582;2022-07-29T00:12:46;101361.22;;;21.82;39.85
23805;BME280;12083;52.098;7.582;2022-07-29T00:15:12;101357.78;;;21.80;39.86
23805;BME280;12083;52.098;7.582;2022-07-29T00:17:38;101354.31;;;21.78;40.17
23805;BME280;12083;52.098;7.582;2022-07-29T00:20:04;101360.72;;;21.76;40.18
23805;BME280;12083;52.098;7.582;2022-07-29T00:22:30;101348.41;;;21.73;40.36
23805;BME280;12083;52.098;7.582;2022-07-29T00:24:56;101348.50;;;21.72;40.30
23805;BME280;12083;52.098;7.582;2022-07-29T00:27:21;101338.84;;;21.69;40.29
23805;BME280;12083;52.098;7.582;2022-07-29T00:29:47;101338.06;;;21.67;40.32
23805;BME280;12083;52.098;7.582;2022-07-29T00:32:13;101329.28;;;21.65;40.50
23805;BME280;12083;52.098;7.582;2022-07-29T00:34:39;101334.81;;;21.62;40.44
23805;BME280;12083;52.098;7.582;2022-07-29T00:37:23;101323.34;;;21.60;40.31
23805;BME280;12083;52.098;7.582;2022-07-29T00:39:49;101327.81;;;21.60;40.42
23805;BME280;12083;52.098;7.582;2022-07-29T00:42:15;101323.53;;;21.57;40.63
23805;BME280;12083;52.098;7.582;2022-07-29T00:44:41;101321.06;;;21.54;40.65
23805;BME280;12083;52.098;7.582;2022-07-29T00:47:09;101314.91;;;21.52;40.60
23805;BME280;12083;52.098;7.582;2022-07-29T00:49:35;101323.88;;;21.51;41.00
23805;BME280;12083;52.098;7.582;2022-07-29T00:52:02;101316.16;;;21.47;40.67
23805;BME280;12083;52.098;7.582;2022-07-29T00:54:28;101317.19;;;21.44;40.89
23805;BME280;12083;52.098;7.582;2022-07-29T00:56:58;101317.28;;;21.43;40.52
23805;BME280;12083;52.098;7.582;2022-07-29T00:59:25;101317.38;;;21.41;40.94
23805;BME280;12083;52.098;7.582;2022-07-29T01:01:51;101315.91;;;21.35;41.09
23805;BME280;12083;52.098;7.582;2022-07-29T01:04:16;101314.28;;;21.33;40.78
23805;BME280;12083;52.098;7.582;2022-07-29T01:06:42;101311.81;;;21.30;40.96
23805;BME280;12083;52.098;7.582;2022-07-29T01:09:08;101311.88;;;21.28;41.28
23805;BME280;12083;52.098;7.582;2022-07-29T01:11:35;101304.91;;;21.26;40.93
23805;BME280;12083;52.098;7.582;2022-07-29T01:14:06;101295.34;;;21.22;41.30
23805;BME280;12083;52.098;7.582;2022-07-29T01:16:39;101296.31;;;21.21;41.36
23805;BME280;12083;52.098;7.582;2022-07-29T01:19:17;101294.69;;;21.18;41.29
23805;BME280;12083;52.098;7.582;2022-07-29T01:21:55;101295.72;;;21.16;41.29
23805;BME280;12083;52.098;7.582;2022-07-29T01:29:55;101283.81;;;21.06;41.47
23805;BME280;12083;52.098;7.582;2022-07-29T01:32:26;101275.97;;;21.03;41.48
23805;BME280;12083;52.098;7.582;2022-07-29T01:34:57;101270.72;;;21.01;41.69
23805;BME280;12083;52.098;7.582;2022-07-29T01:37:50;101270.91;;;20.98;41.70
23805;BME280;12083;52.098;7.582;2022-07-29T01:40:25;101262.13;;;20.96;41.63
23805;BME280;12083;52.098;7.582;2022-07-29T01:42:53;101265.94;;;20.92;41.82
23805;BME280;12083;52.098;7.582;2022-07-29T01:45:27;101260.78;;;20.89;42.17
23805;BME280;12083;52.098;7.582;2022-07-29T01:48:07;101259.13;;;20.86;41.89
23805;BME280;12083;52.098;7.582;2022-07-29T01:50:40;101262.03;;;20.82;42.15
23805;BME280;12083;52.098;7.582;2022-07-29T01:53:09;101267.50;;;20.80;42.19
23805;BME280;12083;52.098;7.582;2022-07-29T01:55:40;101254.34;;;20.77;42.05
23805;BME280;12083;52.098;7.582;2022-07-29T01:58:08;101255.28;;;20.76;42.25
23805;BME280;12083;52.098;7.582;2022-07-29T02:00:35;101255.44;;;20.73;42.21
23805;BME280;12083;52.098;7.582;2022-07-29T02:03:05;101252.84;;;20.72;42.31
23805;BME280;12083;52.098;7.582;2022-07-29T02:05:33;101258.28;;;20.70;42.37
23805;BME280;12083;52.098;7.582;2022-07-29T02:08:00;101248.56;;;20.69;42.29
23805;BME280;12083;52.098;7.582;2022-07-29T02:10:30;101255.91;;;20.66;42.49
23805;BME280;12083;52.098;7.582;2022-07-29T02:12:57;101248.91;;;20.63;42.69
23805;BME280;12083;52.098;7.582;2022-07-29T02:15:28;101257.84;;;20.62;42.54
23805;BME280;12083;52.098;7.582;2022-07-29T02:18:18;101250.81;;;20.61;42.51
23805;BME280;12083;52.098;7.582;2022-07-29T02:20:47;101256.34;;;20.58;42.76
23805;BME280;12083;52.098;7.582;2022-07-29T02:23:17;101250.13;;;20.58;42.72
23805;BME280;12083;52.098;7.582;2022-07-29T02:25:44;101245.81;;;20.55;42.87
23805;BME280;12083;52.098;7.582;2022-07-29T02:28:12;101240.66;;;20.52;42.88
23805;BME280;12083;52.098;7.582;2022-07-29T02:30:40;101244.25;;;20.51;42.85
23805;BME280;12083;52.098;7.582;2022-07-29T02:33:08;101237.22;;;20.50;42.85
23805;BME280;12083;52.098;7.582;2022-07-29T02:35:35;101234.63;;;20.49;42.98
23805;BME280;12083;52.098;7.582;2022-07-29T02:38:02;101235.66;;;20.46;42.95
23805;BME280;12083;52.098;7.582;2022-07-29T02:40:48;101248.22;;;20.44;43.16
23805;BME280;12083;52.098;7.582;2022-07-29T02:43:14;101242.88;;;20.44;43.21
23805;BME280;12083;52.098;7.582;2022-07-29T02:45:41;101236.84;;;20.40;43.30
23805;BME280;12083;52.098;7.582;2022-07-29T02:48:13;101230.66;;;20.40;43.32
23805;BME280;12083;52.098;7.582;2022-07-29T02:50:48;101231.69;;;20.37;43.49
23805;BME280;12083;52.098;7.582;2022-07-29T02:53:18;101231.78;;;20.36;43.36
23805;BME280;12083;52.098;7.582;2022-07-29T02:55:48;101238.09;;;20.35;43.31
23805;BME280;12083;52.098;7.582;2022-07-29T03:00:46;101238.22;;;20.32;43.44
23805;BME280;12083;52.098;7.582;2022-07-29T03:03:16;101231.31;;;20.28;43.59
23805;BME280;12083;52.098;7.582;2022-07-29T03:05:42;101242.09;;;20.26;43.66
23805;BME280;12083;52.098;7.582;2022-07-29T03:08:10;101241.13;;;20.27;43.55
23805;BME280;12083;52.098;7.582;2022-07-29T03:10:39;101231.50;;;20.25;43.51
23805;BME280;12083;52.098;7.582;2022-07-29T03:13:07;101226.34;;;20.22;43.71
23805;BME280;12083;52.098;7.582;2022-07-29T03:15:33;101227.38;;;20.19;43.77
23805;BME280;12083;52.098;7.582;2022-07-29T03:18:00;101227.53;;;20.16;43.74
23805;BME280;12083;52.098;7.582;2022-07-29T03:20:26;101216.94;;;20.15;43.91
23805;BME280;12083;52.098;7.582;2022-07-29T03:22:52;101226.84;;;20.13;43.76
23805;BME280;12083;52.098;7.582;2022-07-29T03:25:19;101230.63;;;20.09;44.03
23805;BME280;12083;52.098;7.582;2022-07-29T03:27:46;101228.03;;;20.07;43.86
23805;BME280;12083;52.098;7.582;2022-07-29T03:30:13;101237.16;;;20.03;44.08
23805;BME280;12083;52.098;7.582;2022-07-29T03:32:39;101237.22;;;20.02;44.10
23805;BME280;12083;52.098;7.582;2022-07-29T03:35:06;101240.00;;;20.00;44.09
23805;BME280;12083;52.098;7.582;2022-07-29T03:37:32;101236.47;;;20.00;44.05
23805;BME280;12083;52.098;7.582;2022-07-29T03:40:00;101241.00;;;19.97;44.19
23805;BME280;12083;52.098;7.582;2022-07-29T03:42:30;101239.38;;;19.95;44.37
23805;BME280;12083;52.098;7.582;2022-07-29T03:44:57;101233.19;;;19.94;44.32
23805;BME280;12083;52.098;7.582;2022-07-29T03:47:26;101239.44;;;19.93;44.38
23805;BME280;12083;52.098;7.582;2022-07-29T03:49:56;101233.34;;;19.91;44.50
23805;BME280;12083;52.098;7.582;2022-07-29T03:52:25;101228.97;;;19.90;44.44
23805;BME280;12083;52.098;7.582;2022-07-29T03:54:51;101230.88;;;19.88;44.58
23805;BME280;12083;52.098;7.582;2022-07-29T03:57:18;101223.00;;;19.85;44.56
23805;BME280;12083;52.098;7.582;2022-07-29T03:59:46;101225.78;;;19.84;44.77
23805;BME280;12083;52.098;7.582;2022-07-29T04:02:12;101228.50;;;19.82;44.67
23805;BME280;12083;52.098;7.582;2022-07-29T04:04:38;101228.63;;;19.81;44.81
23805;BME280;12083;52.098;7.582;2022-07-29T04:07:04;101228.69;;;19.79;44.73
23805;BME280;12083;52.098;7.582;2022-07-29T04:09:30;101237.63;;;19.78;44.79
23805;BME280;12083;52.098;7.582;2022-07-29T04:11:55;101249.06;;;19.80;44.92
23805;BME280;12083;52.098;7.582;2022-07-29T04:14:21;101237.72;;;19.77;44.74
23805;BME280;12083;52.098;7.582;2022-07-29T05:02:32;101238.88;;;19.88;45.41
23805;BME280;12083;52.098;7.582;2022-07-29T05:04:58;101235.09;;;19.92;45.66
23805;BME280;12083;52.098;7.582;2022-07-29T05:07:23;101233.94;;;19.96;45.72
23805;BME280;12083;52.098;7.582;2022-07-29T05:09:49;101233.81;;;20.00;45.65
23805;BME280;12083;52.098;7.582;2022-07-29T05:12:15;101235.34;;;20.04;45.74
23805;BME280;12083;52.098;7.582;2022-07-29T05:14:40;101234.38;;;20.05;45.70
23805;BME280;12083;52.098;7.582;2022-07-29T05:17:06;101236.97;;;20.06;45.79
23805;BME280;12083;52.098;7.582;2022-07-29T05:19:31;101240.34;;;20.10;45.73
23805;BME280;12083;52.098;7.582;2022-07-29T05:21:57;101245.50;;;20.13;45.79
23805;BME280;12083;52.098;7.582;2022-07-29T05:24:23;101245.44;;;20.14;45.85
23805;BME280;12083;52.098;7.582;2022-07-29T05:26:48;101243.44;;;20.18;45.79
23805;BME280;12083;52.098;7.582;2022-07-29T05:29:14;101245.09;;;20.20;45.84
23805;BME280;12083;52.098;7.582;2022-07-29T05:31:39;101248.44;;;20.24;45.71
23805;BME280;12083;52.098;7.582;2022-07-29T05:34:05;101246.47;;;20.27;45.72
23805;BME280;12083;52.098;7.582;2022-07-29T05:36:31;101249.94;;;20.29;45.73
23805;BME280;12083;52.098;7.582;2022-07-29T05:38:56;101252.38;;;20.34;45.79
23805;BME280;12083;52.098;7.582;2022-07-29T05:41:23;101251.25;;;20.38;45.74
23805;BME280;12083;52.098;7.582;2022-07-29T05:43:48;101256.47;;;20.39;45.93
23805;BME280;12083;52.098;7.582;2022-07-29T05:46:14;101262.50;;;20.43;45.80
23805;BME280;12083;52.098;7.582;2022-07-29T05:48:40;101264.16;;;20.46;45.82
23805;BME280;12083;52.098;7.582;2022-07-29T05:51:06;101268.47;;;20.48;45.82
23805;BME280;12083;52.098;7.582;2022-07-29T05:53:32;101273.63;;;20.51;45.85
23805;BME280;12083;52.098;7.582;2022-07-29T05:55:58;101279.75;;;20.53;45.83
23805;BME280;12083;52.098;7.582;2022-07-29T05:58:23;101283.19;;;20.55;45.97
23805;BME280;12083;52.098;7.582;2022-07-29T06:00:49;101277.75;;;20.57;45.89
23805;BME280;12083;52.098;7.582;2022-07-29T06:03:14;101283.78;;;20.60;45.87
23805;BME280;12083;52.098;7.582;2022-07-29T06:05:40;101289.88;;;20.62;45.87
23805;BME280;12083;52.098;7.582;2022-07-29T06:08:06;101289.81;;;20.64;46.05
23805;BME280;12083;52.098;7.582;2022-07-29T06:10:34;101288.69;;;20.68;46.00
23805;BME280;12083;52.098;7.582;2022-07-29T06:13:00;101296.53;;;20.71;46.00
23805;BME280;12083;52.098;7.582;2022-07-29T06:15:25;101294.63;;;20.73;45.97
23805;BME280;12083;52.098;7.582;2022-07-29T06:17:51;101305.06;;;20.77;45.97
23805;BME280;12083;52.098;7.582;2022-07-29T06:20:18;101296.94;;;20.79;46.15
23805;BME280;12083;52.098;7.582;2022-07-29T06:22:43;101307.44;;;20.82;46.05
23805;BME280;12083;52.098;7.582;2022-07-29T06:25:09;101308.25;;;20.84;46.18
23805;BME280;12083;52.098;7.582;2022-07-29T06:27:35;101302.78;;;20.85;46.07
23805;BME280;12083;52.098;7.582;2022-07-29T06:30:01;101301.84;;;20.86;46.05
23805;BME280;12083;52.098;7.582;2022-07-29T06:32:27;101314.19;;;20.89;46.03
23805;BME280;12083;52.098;7.582;2022-07-29T06:34:53;101308.84;;;20.89;46.15
23805;BME280;12083;52.098;7.582;2022-07-29T06:37:18;101309.69;;;20.89;46.24
23805;BME280;12083;52.098;7.582;2022-07-29T06:39:44;101310.53;;;20.90;46.03
23805;BME280;12083;52.098;7.582;2022-07-29T06:42:09;101312.19;;;20.92;46.40
23805;BME280;12083;52.098;7.582;2022-07-29T06:44:35;101314.69;;;20.96;46.24
23805;BME280;12083;52.098;7.582;2022-07-29T06:47:01;101311.06;;;20.97;46.30
23805;BME280;12083;52.098;7.582;2022-07-29T06:49:27;101311.06;;;20.97;46.29
23805;BME280;12083;52.098;7.582;2022-07-29T06:51:54;101305.63;;;20.98;46.48
23805;BME280;12083;52.098;7.582;2022-07-29T06:54:20;101305.56;;;21.00;46.49
23805;BME280;12083;52.098;7.582;2022-07-29T06:56:46;101294.06;;;20.98;46.51
23805;BME280;12083;52.098;7.582;2022-07-29T06:59:12;101299.53;;;20.96;46.64
23805;BME280;12083;52.098;7.582;2022-07-29T07:01:40;101306.69;;;20.96;46.62
23805;BME280;12083;52.098;7.582;2022-07-29T07:04:06;101308.41;;;20.97;46.49
23805;BME280;12083;52.098;7.582;2022-07-29T07:06:34;101305.81;;;20.95;46.54
23805;BME280;12083;52.098;7.582;2022-07-29T07:09:00;101307.63;;;20.95;46.90
23805;BME280;12083;52.098;7.582;2022-07-29T07:11:26;101305.13;;;20.91;46.87
23805;BME280;12083;52.098;7.582;2022-07-29T07:13:51;101301.59;;;20.91;46.88
23805;BME280;12083;52.098;7.582;2022-07-29T07:16:17;101306.19;;;20.89;46.98
23805;BME280;12083;52.098;7.582;2022-07-29T07:18:43;101313.22;;;20.90;46.88
23805;BME280;12083;52.098;7.582;2022-07-29T07:21:10;101313.22;;;20.90;46.88
23805;BME280;12083;52.098;7.582;2022-07-29T07:23:36;101306.94;;;20.91;46.95
23805;BME280;12083;52.098;7.582;2022-07-29T07:26:02;101314.88;;;20.92;47.16
23805;BME280;12083;52.098;7.582;2022-07-29T07:28:28;101312.09;;;20.94;47.08
23805;BME280;12083;52.098;7.582;2022-07-29T07:30:54;101308.31;;;20.98;46.94
23805;BME280;12083;52.098;7.582;2022-07-29T07:33:20;101303.63;;;21.02;47.05
23805;BME280;12083;52.098;7.582;2022-07-29T07:35:46;101304.16;;;21.08;47.29
23805;BME280;12083;52.098;7.582;2022-07-29T07:38:12;101300.28;;;21.14;47.17
23805;BME280;12083;52.098;7.582;2022-07-29T07:40:38;101297.09;;;21.23;47.27
23805;BME280;12083;52.098;7.582;2022-07-29T07:43:04;101301.13;;;21.30;47.11
23805;BME280;12083;52.098;7.582;2022-07-29T07:45:30;101297.72;;;21.42;47.03
23805;BME280;12083;52.098;7.582;2022-07-29T07:47:57;101299.75;;;21.53;46.94
23805;BME280;12083;52.098;7.582;2022-07-29T07:50:23;101305.28;;;21.64;46.73
23805;BME280;12083;52.098;7.582;2022-07-29T07:52:54;101290.25;;;21.77;46.97
23805;BME280;12083;52.098;7.582;2022-07-29T07:55:23;101295.66;;;21.90;46.84
23805;BME280;12083;52.098;7.582;2022-07-29T07:57:49;101304.69;;;22.03;46.90
23805;BME280;12083;52.098;7.582;2022-07-29T08:00:16;101300.47;;;22.13;46.30
23805;BME280;12083;52.098;7.582;2022-07-29T08:02:42;101303.47;;;22.22;46.47
23805;BME280;12083;52.098;7.582;2022-07-29T08:05:09;101302.97;;;22.30;46.15
23805;BME280;12083;52.098;7.582;2022-07-29T08:07:34;101297.41;;;22.33;46.27
23805;BME280;12083;52.098;7.582;2022-07-29T08:10:00;101307.75;;;22.39;45.85
23805;BME280;12083;52.098;7.582;2022-07-29T08:12:26;101310.22;;;22.42;45.77
23805;BME280;12083;52.098;7.582;2022-07-29T08:14:52;101309.28;;;22.43;45.65
23805;BME280;12083;52.098;7.582;2022-07-29T08:17:17;101316.34;;;22.44;46.03
23805;BME280;12083;52.098;7.582;2022-07-29T08:19:43;101318.16;;;22.44;45.81
23805;BME280;12083;52.098;7.582;2022-07-29T08:22:08;101319.88;;;22.45;45.88
23805;BME280;12083;52.098;7.582;2022-07-29T08:24:35;101328.78;;;22.45;45.88
23805;BME280;12083;52.098;7.582;2022-07-29T08:27:11;101323.50;;;22.44;45.66
23805;BME280;12083;52.098;7.582;2022-07-29T08:29:38;101316.44;;;22.43;45.57
23805;BME280;12083;52.098;7.582;2022-07-29T08:32:04;101312.91;;;22.42;45.99
23805;BME280;12083;52.098;7.582;2022-07-29T08:34:30;101311.09;;;22.43;45.67
23805;BME280;12083;52.098;7.582;2022-07-29T08:36:56;101309.38;;;22.42;45.62
23805;BME280;12083;52.098;7.582;2022-07-29T08:39:22;101310.13;;;22.44;45.71
23805;BME280;12083;52.098;7.582;2022-07-29T08:41:49;101297.50;;;22.46;45.65
23805;BME280;12083;52.098;7.582;2022-07-29T08:44:19;101292.81;;;22.49;45.67
23805;BME280;12083;52.098;7.582;2022-07-29T08:46:45;101301.28;;;22.56;45.78
23805;BME280;12083;52.098;7.582;2022-07-29T08:49:11;101298.91;;;22.65;45.85
23805;BME280;12083;52.098;7.582;2022-07-29T08:51:39;101296.63;;;22.73;45.58
23805;BME280;12083;52.098;7.582;2022-07-29T08:54:05;101292.47;;;22.82;45.70
23805;BME280;12083;52.098;7.582;2022-07-29T08:56:31;101286.41;;;22.93;45.46
23805;BME280;12083;52.098;7.582;2022-07-29T08:58:58;101282.34;;;23.00;45.71
23805;BME280;12083;52.098;7.582;2022-07-29T09:03:55;101279.38;;;23.04;45.63
23805;BME280;12083;52.098;7.582;2022-07-29T09:06:21;101275.63;;;23.07;45.17
23805;BME280;12083;52.098;7.582;2022-07-29T09:08:47;101268.44;;;23.07;45.37
23805;BME280;12083;52.098;7.582;2022-07-29T09:11:14;101271.03;;;23.09;45.44
23805;BME280;12083;52.098;7.582;2022-07-29T09:13:40;101274.66;;;23.08;45.79
23805;BME280;12083;52.098;7.582;2022-07-29T09:16:06;101273.06;;;23.05;46.00
23805;BME280;12083;52.098;7.582;2022-07-29T09:21:06;101297.56;;;22.99;45.97
23805;BME280;12083;52.098;7.582;2022-07-29T09:24:04;101305.25;;;22.91;46.20
23805;BME280;12083;52.098;7.582;2022-07-29T09:26:31;101310.16;;;22.85;45.92
23805;BME280;12083;52.098;7.582;2022-07-29T09:28:58;101311.31;;;22.81;46.45
23805;BME280;12083;52.098;7.582;2022-07-29T09:31:35;101302.84;;;22.74;46.84
23805;BME280;12083;52.098;7.582;2022-07-29T09:34:01;101311.16;;;22.69;46.72
23805;BME280;12083;52.098;7.582;2022-07-29T09:36:27;101309.81;;;22.62;47.52
23805;BME280;12083;52.098;7.582;2022-07-29T09:39:00;101310.19;;;22.56;47.44
23805;BME280;12083;52.098;7.582;2022-07-29T09:41:27;101303.59;;;22.48;48.05
23805;BME280;12083;52.098;7.582;2022-07-29T09:43:57;101290.81;;;22.39;48.27
23805;BME280;12083;52.098;7.582;2022-07-29T09:46:26;101290.66;;;22.27;48.68
23805;BME280;12083;52.098;7.582;2022-07-29T09:49:18;101293.03;;;22.18;49.37
23805;BME280;12083;52.098;7.582;2022-07-29T09:51:43;101294.47;;;22.09;49.46
23805;BME280;12083;52.098;7.582;2022-07-29T09:54:26;101296.69;;;22.03;50.24
23805;BME280;12083;52.098;7.582;2022-07-29T09:56:53;101299.75;;;21.97;50.35
23805;BME280;12083;52.098;7.582;2022-07-29T09:59:20;101303.56;;;21.93;50.43
23805;BME280;12083;52.098;7.582;2022-07-29T10:01:48;101302.09;;;21.87;50.83
23805;BME280;12083;52.098;7.582;2022-07-29T10:04:15;101304.09;;;21.83;51.35
23805;BME280;12083;52.098;7.582;2022-07-29T10:07:02;101306.16;;;21.78;51.79
23805;BME280;12083;52.098;7.582;2022-07-29T10:09:28;101309.16;;;21.74;51.77
23805;BME280;12083;52.098;7.582;2022-07-29T10:12:10;101312.09;;;21.69;52.60
23805;BME280;12083;52.098;7.582;2022-07-29T10:14:39;101318.66;;;21.64;52.44
23805;BME280;12083;52.098;7.582;2022-07-29T10:17:06;101316.09;;;21.62;52.99
23805;BME280;12083;52.098;7.582;2022-07-29T10:19:33;101318.00;;;21.60;52.93
23805;BME280;12083;52.098;7.582;2022-07-29T10:22:02;101310.91;;;21.59;53.62
23805;BME280;12083;52.098;7.582;2022-07-29T10:24:29;101308.25;;;21.59;53.49
23805;BME280;12083;52.098;7.582;2022-07-29T10:26:57;101312.66;;;21.60;53.65
23805;BME280;12083;52.098;7.582;2022-07-29T10:29:24;101305.41;;;21.62;53.90
23805;BME280;12083;52.098;7.582;2022-07-29T10:34:59;101303.28;;;21.67;54.87
23805;BME280;12083;52.098;7.582;2022-07-29T10:43:54;101292.59;;;21.67;54.75
23805;BME280;12083;52.098;7.582;2022-07-29T10:46:21;101289.84;;;21.69;54.93
23805;BME280;12083;52.098;7.582;2022-07-29T10:49:15;101288.97;;;21.68;55.20
23805;BME280;12083;52.098;7.582;2022-07-29T10:54:47;101291.47;;;21.71;55.41
23805;BME280;12083;52.098;7.582;2022-07-29T10:57:25;101296.72;;;21.73;55.56
23805;BME280;12083;52.098;7.582;2022-07-29T11:05:18;101287.56;;;21.77;55.92
23805;BME280;12083;52.098;7.582;2022-07-29T11:10:38;101289.09;;;21.81;55.43
23805;BME280;12083;52.098;7.582;2022-07-29T11:13:04;101293.59;;;21.80;55.65
23805;BME280;12083;52.098;7.582;2022-07-29T11:15:56;101288.22;;;21.80;56.16
23805;BME280;12083;52.098;7.582;2022-07-29T11:18:22;101289.09;;;21.81;55.68
23805;BME280;12083;52.098;7.582;2022-07-29T11:20:50;101295.31;;;21.81;55.72
23805;BME280;12083;52.098;7.582;2022-07-29T11:23:32;101292.63;;;21.81;56.23
23805;BME280;12083;52.098;7.582;2022-07-29T11:31:38;101281.06;;;21.81;56.30
23805;BME280;12083;52.098;7.582;2022-07-29T11:34:32;101285.44;;;21.82;56.60
23805;BME280;12083;52.098;7.582;2022-07-29T11:39:44;101298.94;;;21.80;56.66
23805;BME280;12083;52.098;7.582;2022-07-29T11:45:07;101310.56;;;21.79;56.21
23805;BME280;12083;52.098;7.582;2022-07-29T11:47:48;101307.91;;;21.79;56.43
23805;BME280;12083;52.098;7.582;2022-07-29T11:50:17;101308.78;;;21.80;56.86
23805;BME280;12083;52.098;7.582;2022-07-29T11:52:45;101303.41;;;21.80;56.81
23805;BME280;12083;52.098;7.582;2022-07-29T11:55:19;101294.44;;;21.81;56.88
23805;BME280;12083;52.098;7.582;2022-07-29T12:00:34;101295.31;;;21.81;57.51
23805;BME280;12083;52.098;7.582;2022-07-29T12:03:02;101289.97;;;21.81;57.36
23805;BME280;12083;52.098;7.582;2022-07-29T12:08:16;101288.03;;;21.83;57.72
23805;BME280;12083;52.098;7.582;2022-07-29T12:10:44;101292.44;;;21.84;56.96
23805;BME280;12083;52.098;7.582;2022-07-29T12:13:12;101297.78;;;21.84;57.13
23805;BME280;12083;52.098;7.582;2022-07-29T12:15:38;101294.25;;;21.84;57.29
23805;BME280;12083;52.098;7.582;2022-07-29T12:18:12;101293.47;;;21.82;57.92
23805;BME280;12083;52.098;7.582;2022-07-29T12:20:38;101285.56;;;21.80;57.91
23805;BME280;12083;52.098;7.582;2022-07-29T12:23:06;101283.75;;;21.81;57.78
23805;BME280;12083;52.098;7.582;2022-07-29T12:25:33;101287.38;;;21.80;58.54
23805;BME280;12083;52.098;7.582;2022-07-29T12:28:02;101287.44;;;21.78;58.56
23805;BME280;12083;52.098;7.582;2022-07-29T12:30:55;101282.88;;;21.80;58.82
23805;BME280;12083;52.098;7.582;2022-07-29T12:33:27;101278.47;;;21.79;58.38
23805;BME280;12083;52.098;7.582;2022-07-29T12:36:01;101274.84;;;21.80;58.64
23805;BME280;12083;52.098;7.582;2022-07-29T12:38:28;101279.16;;;21.83;58.52
23805;BME280;12083;52.098;7.582;2022-07-29T12:40:54;101273.59;;;21.86;58.85
23805;BME280;12083;52.098;7.582;2022-07-29T12:43:22;101266.25;;;21.90;59.12
23805;BME280;12083;52.098;7.582;2022-07-29T12:45:50;101274.03;;;21.94;59.36
23805;BME280;12083;52.098;7.582;2022-07-29T12:48:17;101274.59;;;21.99;59.08
23805;BME280;12083;52.098;7.582;2022-07-29T12:50:58;101268.03;;;22.05;59.73
23805;BME280;12083;52.098;7.582;2022-07-29T12:53:24;101266.75;;;22.10;59.30
23805;BME280;12083;52.098;7.582;2022-07-29T12:55:51;101263.78;;;22.15;59.47
23805;BME280;12083;52.098;7.582;2022-07-29T12:58:37;101263.50;;;22.19;59.93
23805;BME280;12083;52.098;7.582;2022-07-29T13:01:11;101265.03;;;22.23;59.65
23805;BME280;12083;52.098;7.582;2022-07-29T13:03:50;101258.69;;;22.24;59.85
23805;BME280;12083;52.098;7.582;2022-07-29T13:06:42;101269.31;;;22.26;59.83
23805;BME280;12083;52.098;7.582;2022-07-29T13:11:47;101264.84;;;22.26;59.62
23805;BME280;12083;52.098;7.582;2022-07-29T13:17:11;101271.06;;;22.27;59.52
23805;BME280;12083;52.098;7.582;2022-07-29T13:19:38;101272.09;;;22.24;59.56
23805;BME280;12083;52.098;7.582;2022-07-29T13:22:08;101272.94;;;22.25;59.99
23805;BME280;12083;52.098;7.582;2022-07-29T13:24:50;101275.63;;;22.25;60.13
23805;BME280;12083;52.098;7.582;2022-07-29T13:27:17;101275.53;;;22.26;59.93
23805;BME280;12083;52.098;7.582;2022-07-29T13:29:43;101280.81;;;22.28;60.03
23805;BME280;12083;52.098;7.582;2022-07-29T13:32:09;101270.84;;;22.30;60.24
23805;BME280;12083;52.098;7.582;2022-07-29T13:34:36;101276.78;;;22.35;60.41
23805;BME280;12083;52.098;7.582;2022-07-29T13:37:02;101269.28;;;22.40;60.51
23805;BME280;12083;52.098;7.582;2022-07-29T13:39:27;101272.53;;;22.45;60.58
23805;BME280;12083;52.098;7.582;2022-07-29T13:41:53;101267.75;;;22.50;60.45
23805;BME280;12083;52.098;7.582;2022-07-29T13:44:18;101271.75;;;22.57;60.33
23805;BME280;12083;52.098;7.582;2022-07-29T13:46:44;101273.94;;;22.65;60.34
23805;BME280;12083;52.098;7.582;2022-07-29T13:49:10;101267.91;;;22.75;60.58
23805;BME280;12083;52.098;7.582;2022-07-29T13:51:37;101269.97;;;22.85;60.45
23805;BME280;12083;52.098;7.582;2022-07-29T13:54:03;101260.13;;;22.98;59.97
23805;BME280;12083;52.098;7.582;2022-07-29T13:56:29;101261.06;;;23.11;60.12
23805;BME280;12083;52.098;7.582;2022-07-29T13:58:55;101252.81;;;23.26;59.90
23805;BME280;12083;52.098;7.582;2022-07-29T14:01:20;101250.72;;;23.44;59.87
23805;BME280;12083;52.098;7.582;2022-07-29T14:03:46;101245.94;;;23.62;59.52
23805;BME280;12083;52.098;7.582;2022-07-29T14:06:12;101243.03;;;23.78;59.29
23805;BME280;12083;52.098;7.582;2022-07-29T14:08:38;101240.22;;;23.92;59.39
23805;BME280;12083;52.098;7.582;2022-07-29T14:11:05;101237.28;;;24.07;58.91
23805;BME280;12083;52.098;7.582;2022-07-29T14:13:31;101236.34;;;24.21;58.76
23805;BME280;12083;52.098;7.582;2022-07-29T14:15:57;101238.88;;;24.35;58.41
23805;BME280;12083;52.098;7.582;2022-07-29T14:18:22;101231.63;;;24.48;58.15
23805;BME280;12083;52.098;7.582;2022-07-29T14:20:48;101229.75;;;24.61;57.85
23805;BME280;12083;52.098;7.582;2022-07-29T14:23:13;101234.94;;;24.76;57.58
23805;BME280;12083;52.098;7.582;2022-07-29T14:25:39;101240.19;;;24.90;57.43
23805;BME280;12083;52.098;7.582;2022-07-29T14:28:05;101226.78;;;25.01;57.02
23805;BME280;12083;52.098;7.582;2022-07-29T14:30:30;101235.84;;;25.11;56.69
23805;BME280;12083;52.098;7.582;2022-07-29T14:32:56;101237.22;;;25.17;56.42
23805;BME280;12083;52.098;7.582;2022-07-29T14:35:22;101236.88;;;25.21;56.28
23805;BME280;12083;52.098;7.582;2022-07-29T14:37:48;101234.81;;;25.25;55.58